sensor_id;sensor_type;location;lat;lon;timestamp;pressure;altitude;pressure_sealevel;temperature;humidity
9822;BME280;4950;46.042;14.472;2023-05-09T00:00:29;98503.56;;;14.32;80.54
9822;BME280;4950;46.042;14.472;2023-05-09T00:02:57;98500.97;;;14.32;80.98
9822;BME280;4950;46.042;14.472;2023-05-09T00:05:24;98498.16;;;14.33;81.35
9822;BME280;4950;46.042;14.472;2023-05-09T00:07:50;98503.56;;;14.32;81.52
9822;BME280;4950;46.042;14.472;2023-05-09T00:10:17;98495.53;;;14.33;81.93
9822;BME280;4950;46.042;14.472;2023-05-09T00:12:43;98497.91;;;14.28;81.76
9822;BME280;4950;46.042;14.472;2023-05-09T00:15:11;98491.66;;;14.29;82.19
9822;BME280;4950;46.042;14.472;2023-05-09T00:17:38;98491.31;;;14.32;82.12
9822;BME280;4950;46.042;14.472;2023-05-09T00:20:08;98488.16;;;14.37;81.72
9822;BME280;4950;46.042;14.472;2023-05-09T00:22:36;98478.72;;;14.36;81.32
9822;BME280;4950;46.042;14.472;2023-05-09T00:25:04;98477.06;;;14.35;81.02
9822;BME280;4950;46.042;14.472;2023-05-09T00:27:31;98468.44;;;14.34;81.18
9822;BME280;4950;46.042;14.472;2023-05-09T00:29:57;98478.09;;;14.34;81.16
9822;BME280;4950;46.042;14.472;2023-05-09T00:32:24;98469.88;;;14.37;80.77
9822;BME280;4950;46.042;14.472;2023-05-09T00:34:51;98466.63;;;14.35;80.53
9822;BME280;4950;46.042;14.472;2023-05-09T00:37:19;98466.81;;;14.33;80.89
9822;BME280;4950;46.042;14.472;2023-05-09T00:39:46;98463.56;;;14.31;80.79
9822;BME280;4950;46.042;14.472;2023-05-09T00:42:13;98465.38;;;14.31;80.88
9822;BME280;4950;46.042;14.472;2023-05-09T00:44:39;98461.16;;;14.30;80.78
9822;BME280;4950;46.042;14.472;2023-05-09T00:47:06;98459.34;;;14.30;80.61
9822;BME280;4950;46.042;14.472;2023-05-09T00:49:33;98457.72;;;14.29;80.78
9822;BME280;4950;46.042;14.472;2023-05-09T00:52:01;98459.53;;;14.29;80.54
9822;BME280;4950;46.042;14.472;2023-05-09T00:54:30;98448.47;;;14.27;80.27
9822;BME280;4950;46.042;14.472;2023-05-09T00:56:57;98454.88;;;14.24;80.15
9822;BME280;4950;46.042;14.472;2023-05-09T00:59:24;98444.53;;;14.16;81.67
9822;BME280;4950;46.042;14.472;2023-05-09T01:01:51;98448.91;;;14.15;81.64
9822;BME280;4950;46.042;14.472;2023-05-09T01:04:18;98443.88;;;14.14;82.29
9822;BME280;4950;46.042;14.472;2023-05-09T01:06:51;98448.28;;;14.13;82.00
9822;BME280;4950;46.042;14.472;2023-05-09T01:09:28;98449.66;;;14.09;82.42
9822;BME280;4950;46.042;14.472;2023-05-09T01:12:06;98450.47;;;14.10;82.61
9822;BME280;4950;46.042;14.472;2023-05-09T01:14:39;98449.84;;;14.08;82.79
9822;BME280;4950;46.042;14.472;2023-05-09T01:17:13;98445.25;;;14.10;82.65
9822;BME280;4950;46.042;14.472;2023-05-09T01:19:59;98438.13;;;14.03;82.79
9822;BME280;4950;46.042;14.472;2023-05-09T01:22:36;98450.22;;;14.05;82.60
9822;BME280;4950;46.042;14.472;2023-05-09T01:25:48;98442.56;;;14.03;82.75
9822;BME280;4950;46.042;14.472;2023-05-09T01:28:35;98446.16;;;14.02;82.95
9822;BME280;4950;46.042;14.472;2023-05-09T01:31:08;98439.50;;;13.99;83.07
9822;BME280;4950;46.042;14.472;2023-05-09T01:33:37;98432.84;;;13.97;82.89
9822;BME280;4950;46.042;14.472;2023-05-09T01:36:08;98431.16;;;13.89;82.94
9822;BME280;4950;46.042;14.472;2023-05-09T01:38:37;98431.50;;;13.86;83.32
9822;BME280;4950;46.042;14.472;2023-05-09T01:41:08;98427.09;;;13.87;83.03
9822;BME280;4950;46.042;14.472;2023-05-09T01:43:37;98431.94;;;13.90;82.84
9822;BME280;4950;46.042;14.472;2023-05-09T01:46:05;98431.31;;;13.88;82.50
9822;BME280;4950;46.042;14.472;2023-05-09T01:48:35;98431.69;;;13.85;82.39
9822;BME280;4950;46.042;14.472;2023-05-09T01:51:03;98423.41;;;13.81;82.59
9822;BME280;4950;46.042;14.472;2023-05-09T01:53:31;98425.19;;;13.80;82.58
9822;BME280;4950;46.042;14.472;2023-05-09T01:55:59;98417.81;;;13.84;82.01
9822;BME280;4950;46.042;14.472;2023-05-09T01:58:26;98415.75;;;13.79;82.56
9822;BME280;4950;46.042;14.472;2023-05-09T02:00:53;98416.94;;;13.77;82.65
9822;BME280;4950;46.042;14.472;2023-05-09T02:03:20;98416.94;;;13.77;82.86
9822;BME280;4950;46.042;14.472;2023-05-09T02:05:49;98409.75;;;13.79;82.62
9822;BME280;4950;46.042;14.472;2023-05-09T02:08:17;98404.69;;;13.77;82.88
9822;BME280;4950;46.042;14.472;2023-05-09T02:10:46;98411.72;;;13.77;83.01
9822;BME280;4950;46.042;14.472;2023-05-09T02:13:14;98404.31;;;13.80;82.91
9822;BME280;4950;46.042;14.472;2023-05-09T02:15:41;98412.53;;;13.77;82.78
9822;BME280;4950;46.042;14.472;2023-05-09T02:18:08;98405.16;;;13.81;82.70
9822;BME280;4950;46.042;14.472;2023-05-09T02:20:35;98403.44;;;13.73;82.77
9822;BME280;4950;46.042;14.472;2023-05-09T02:23:03;98402.00;;;13.71;82.76
9822;BME280;4950;46.042;14.472;2023-05-09T02:25:31;98412.63;;;13.69;81.99
9822;BME280;4950;46.042;14.472;2023-05-09T02:27:58;98411.72;;;13.62;82.64
9822;BME280;4950;46.042;14.472;2023-05-09T02:30:30;98415.94;;;13.63;83.00
9822;BME280;4950;46.042;14.472;2023-05-09T02:33:02;98411.78;;;13.69;82.61
9822;BME280;4950;46.042;14.472;2023-05-09T02:35:29;98415.25;;;13.69;82.40
9822;BME280;4950;46.042;14.472;2023-05-09T02:37:56;98417.84;;;13.69;82.41
9822;BME280;4950;46.042;14.472;2023-05-09T02:40:26;98415.88;;;13.71;82.07
9822;BME280;4950;46.042;14.472;2023-05-09T02:42:53;98418.09;;;13.74;82.30
9822;BME280;4950;46.042;14.472;2023-05-09T02:45:20;98420.97;;;13.79;81.85
9822;BME280;4950;46.042;14.472;2023-05-09T02:47:46;98417.75;;;13.77;81.80
9822;BME280;4950;46.042;14.472;2023-05-09T02:50:13;98416.38;;;13.81;81.96
9822;BME280;4950;46.042;14.472;2023-05-09T02:52:40;98421.59;;;13.81;82.42
9822;BME280;4950;46.042;14.472;2023-05-09T02:55:07;98416.38;;;13.81;82.19
9822;BME280;4950;46.042;14.472;2023-05-09T02:57:35;98419.97;;;13.80;82.46
9822;BME280;4950;46.042;14.472;2023-05-09T03:00:03;98421.44;;;13.83;82.20
9822;BME280;4950;46.042;14.472;2023-05-09T03:02:33;98418.28;;;13.88;82.29
9822;BME280;4950;46.042;14.472;2023-05-09T03:04:59;98418.53;;;13.93;81.70
9822;BME280;4950;46.042;14.472;2023-05-09T03:07:26;98420.31;;;13.92;81.75
9822;BME280;4950;46.042;14.472;2023-05-09T03:09:53;98420.97;;;13.94;81.90
9822;BME280;4950;46.042;14.472;2023-05-09T03:12:19;98422.75;;;13.94;81.78
9822;BME280;4950;46.042;14.472;2023-05-09T03:14:47;98415.09;;;13.92;81.74
9822;BME280;4950;46.042;14.472;2023-05-09T03:17:14;98414.31;;;13.92;81.75
9822;BME280;4950;46.042;14.472;2023-05-09T03:19:41;98410.53;;;13.94;81.34
9822;BME280;4950;46.042;14.472;2023-05-09T03:22:08;98421.16;;;13.93;81.55
9822;BME280;4950;46.042;14.472;2023-05-09T03:24:35;98413.94;;;13.95;81.20
9822;BME280;4950;46.042;14.472;2023-05-09T03:27:02;98414.94;;;13.94;80.69
9822;BME280;4950;46.042;14.472;2023-05-09T03:29:28;98419.16;;;13.95;80.53
9822;BME280;4950;46.042;14.472;2023-05-09T03:31:56;98412.94;;;13.96;80.41
9822;BME280;4950;46.042;14.472;2023-05-09T03:34:23;98416.38;;;13.96;80.27
9822;BME280;4950;46.042;14.472;2023-05-09T03:36:50;98409.81;;;14.00;80.47
9822;BME280;4950;46.042;14.472;2023-05-09T03:39:16;98404.94;;;13.97;80.18
9822;BME280;4950;46.042;14.472;2023-05-09T03:41:43;98409.34;;;13.97;80.20
9822;BME280;4950;46.042;14.472;2023-05-09T03:44:09;98404.75;;;13.99;80.03
9822;BME280;4950;46.042;14.472;2023-05-09T03:46:36;98405.22;;;14.02;80.20
9822;BME280;4950;46.042;14.472;2023-05-09T03:49:04;98412.84;;;14.04;79.80
9822;BME280;4950;46.042;14.472;2023-05-09T03:51:31;98414.63;;;14.03;79.94
9822;BME280;4950;46.042;14.472;2023-05-09T03:53:57;98413.50;;;14.06;79.38
9822;BME280;4950;46.042;14.472;2023-05-09T03:56:24;98416.09;;;14.06;78.69
9822;BME280;4950;46.042;14.472;2023-05-09T03:58:51;98415.44;;;14.04;78.59
9822;BME280;4950;46.042;14.472;2023-05-09T04:01:17;98414.47;;;14.05;79.17
9822;BME280;4950;46.042;14.472;2023-05-09T04:03:44;98416.09;;;14.06;79.05
9822;BME280;4950;46.042;14.472;2023-05-09T04:06:12;98419.34;;;14.08;79.49
9822;BME280;4950;46.042;14.472;2023-05-09T04:08:39;98417.69;;;14.07;79.85
9822;BME280;4950;46.042;14.472;2023-05-09T04:11:05;98419.69;;;14.05;80.06
9822;BME280;4950;46.042;14.472;2023-05-09T04:13:32;98412.03;;;14.03;80.08
9822;BME280;4950;46.042;14.472;2023-05-09T04:15:59;98421.03;;;14.01;80.37
9822;BME280;4950;46.042;14.472;2023-05-09T04:18:26;98423.28;;;14.04;80.07
9822;BME280;4950;46.042;14.472;2023-05-09T04:20:52;98423.94;;;14.06;79.76
9822;BME280;4950;46.042;14.472;2023-05-09T04:23:21;98421.66;;;14.03;79.66
9822;BME280;4950;46.042;14.472;2023-05-09T04:25:48;98423.22;;;13.97;79.81
9822;BME280;4950;46.042;14.472;2023-05-09T04:28:16;98427.81;;;13.95;79.76
9822;BME280;4950;46.042;14.472;2023-05-09T04:30:43;98429.88;;;13.85;79.35
9822;BME280;4950;46.042;14.472;2023-05-09T04:33:10;98439.53;;;13.85;78.98
9822;BME280;4950;46.042;14.472;2023-05-09T04:35:37;98440.59;;;13.75;78.33
9822;BME280;4950;46.042;14.472;2023-05-09T04:38:03;98435.84;;;13.79;77.86
9822;BME280;4950;46.042;14.472;2023-05-09T04:40:32;98436.81;;;13.78;77.45
9822;BME280;4950;46.042;14.472;2023-05-09T04:42:58;98443.84;;;13.77;77.54
9822;BME280;4950;46.042;14.472;2023-05-09T04:45:25;98441.59;;;13.74;77.10
9822;BME280;4950;46.042;14.472;2023-05-09T04:47:52;98441.13;;;13.71;77.51
9822;BME280;4950;46.042;14.472;2023-05-09T04:50:18;98439.41;;;13.63;77.69
9822;BME280;4950;46.042;14.472;2023-05-09T04:52:45;98436.34;;;13.74;77.46
9822;BME280;4950;46.042;14.472;2023-05-09T04:55:11;98445.09;;;13.67;77.32
9822;BME280;4950;46.042;14.472;2023-05-09T04:57:39;98446.59;;;13.61;78.03
9822;BME280;4950;46.042;14.472;2023-05-09T05:00:07;98451.13;;;13.52;78.46
9822;BME280;4950;46.042;14.472;2023-05-09T05:02:35;98441.66;;;13.51;78.49
9822;BME280;4950;46.042;14.472;2023-05-09T05:05:02;98445.19;;;13.58;77.82
9822;BME280;4950;46.042;14.472;2023-05-09T05:07:29;98437.63;;;13.63;77.85
9822;BME280;4950;46.042;14.472;2023-05-09T05:09:55;98441.84;;;13.50;78.64
9822;BME280;4950;46.042;14.472;2023-05-09T05:12:22;98441.56;;;13.45;78.88
9822;BME280;4950;46.042;14.472;2023-05-09T05:14:50;98447.34;;;13.40;79.21
9822;BME280;4950;46.042;14.472;2023-05-09T05:17:17;98449.53;;;13.28;80.29
9822;BME280;4950;46.042;14.472;2023-05-09T05:19:44;98446.59;;;13.31;80.07
9822;BME280;4950;46.042;14.472;2023-05-09T05:22:10;98451.00;;;13.31;80.47
9822;BME280;4950;46.042;14.472;2023-05-09T05:24:37;98454.41;;;13.31;79.71
9822;BME280;4950;46.042;14.472;2023-05-09T05:27:03;98452.66;;;13.23;80.70
9822;BME280;4950;46.042;14.472;2023-05-09T05:29:30;98449.78;;;13.18;81.42
9822;BME280;4950;46.042;14.472;2023-05-09T05:31:58;98441.09;;;13.26;81.05
9822;BME280;4950;46.042;14.472;2023-05-09T05:34:24;98446.97;;;13.20;81.29
9822;BME280;4950;46.042;14.472;2023-05-09T05:36:51;98444.63;;;13.10;82.14
9822;BME280;4950;46.042;14.472;2023-05-09T05:39:17;98440.03;;;13.12;81.84
9822;BME280;4950;46.042;14.472;2023-05-09T05:41:44;98436.97;;;13.32;80.76
9822;BME280;4950;46.042;14.472;2023-05-09T05:44:10;98448.44;;;13.22;80.85
9822;BME280;4950;46.042;14.472;2023-05-09T05:46:37;98447.28;;;13.25;81.05
9822;BME280;4950;46.042;14.472;2023-05-09T05:49:05;98437.72;;;13.17;81.37
9822;BME280;4950;46.042;14.472;2023-05-09T05:51:32;98446.75;;;13.30;80.90
9822;BME280;4950;46.042;14.472;2023-05-09T05:53:58;98447.38;;;13.32;81.07
9822;BME280;4950;46.042;14.472;2023-05-09T05:56:25;98446.25;;;13.34;80.77
9822;BME280;4950;46.042;14.472;2023-05-09T05:58:52;98449.53;;;13.28;80.41
9822;BME280;4950;46.042;14.472;2023-05-09T06:01:18;98446.16;;;13.19;80.93
9822;BME280;4950;46.042;14.472;2023-05-09T06:03:45;98450.88;;;13.24;81.06
9822;BME280;4950;46.042;14.472;2023-05-09T06:06:15;98454.53;;;13.38;79.15
9822;BME280;4950;46.042;14.472;2023-05-09T06:08:41;98452.44;;;13.33;79.10
9822;BME280;4950;46.042;14.472;2023-05-09T06:11:08;98452.94;;;13.29;79.73
9822;BME280;4950;46.042;14.472;2023-05-09T06:13:35;98454.56;;;13.30;79.87
9822;BME280;4950;46.042;14.472;2023-05-09T06:16:01;98451.03;;;13.22;80.67
9822;BME280;4950;46.042;14.472;2023-05-09T06:18:28;98453.59;;;13.31;79.53
9822;BME280;4950;46.042;14.472;2023-05-09T06:20:55;98453.47;;;13.24;79.33
9822;BME280;4950;46.042;14.472;2023-05-09T06:23:23;98445.91;;;13.29;78.75
9822;BME280;4950;46.042;14.472;2023-05-09T06:25:49;98448.38;;;13.31;79.15
9822;BME280;4950;46.042;14.472;2023-05-09T06:28:18;98451.09;;;13.37;78.33
9822;BME280;4950;46.042;14.472;2023-05-09T06:30:45;98441.66;;;13.36;79.12
9822;BME280;4950;46.042;14.472;2023-05-09T06:33:11;98435.63;;;13.36;79.05
9822;BME280;4950;46.042;14.472;2023-05-09T06:35:38;98437.16;;;13.45;78.91
9822;BME280;4950;46.042;14.472;2023-05-09T06:38:05;98424.94;;;13.46;77.79
9822;BME280;4950;46.042;14.472;2023-05-09T06:40:33;98427.09;;;13.57;77.68
9822;BME280;4950;46.042;14.472;2023-05-09T06:42:59;98418.81;;;13.68;75.42
9822;BME280;4950;46.042;14.472;2023-05-09T06:45:26;98417.75;;;13.62;76.10
9822;BME280;4950;46.042;14.472;2023-05-09T06:47:52;98416.59;;;13.65;75.76
9822;BME280;4950;46.042;14.472;2023-05-09T06:50:19;98413.59;;;13.68;75.95
9822;BME280;4950;46.042;14.472;2023-05-09T06:52:46;98415.59;;;13.66;76.58
9822;BME280;4950;46.042;14.472;2023-05-09T06:55:12;98416.03;;;13.70;76.25
9822;BME280;4950;46.042;14.472;2023-05-09T06:57:40;98419.34;;;13.78;75.74
9822;BME280;4950;46.042;14.472;2023-05-09T07:00:08;98418.28;;;13.88;74.65
9822;BME280;4950;46.042;14.472;2023-05-09T07:02:35;98416.84;;;13.70;74.92
9822;BME280;4950;46.042;14.472;2023-05-09T07:05:06;98407.94;;;13.65;75.52
9822;BME280;4950;46.042;14.472;2023-05-09T07:07:33;98411.72;;;13.62;75.86
9822;BME280;4950;46.042;14.472;2023-05-09T07:09:59;98419.34;;;13.78;75.47
9822;BME280;4950;46.042;14.472;2023-05-09T07:12:30;98417.13;;;13.75;75.09
9822;BME280;4950;46.042;14.472;2023-05-09T07:14:57;98425.03;;;13.67;75.35
9822;BME280;4950;46.042;14.472;2023-05-09T07:17:24;98422.50;;;13.74;75.29
9822;BME280;4950;46.042;14.472;2023-05-09T07:19:51;98416.03;;;13.70;75.88
9822;BME280;4950;46.042;14.472;2023-05-09T07:22:17;98426.75;;;13.60;75.92
9822;BME280;4950;46.042;14.472;2023-05-09T07:24:44;98418.63;;;13.55;76.45
9822;BME280;4950;46.042;14.472;2023-05-09T07:27:11;98418.03;;;13.68;75.37
9822;BME280;4950;46.042;14.472;2023-05-09T07:29:37;98412.81;;;13.68;74.45
9822;BME280;4950;46.042;14.472;2023-05-09T07:32:06;98407.13;;;13.64;75.29
9822;BME280;4950;46.042;14.472;2023-05-09T07:34:32;98416.75;;;13.49;76.46
9822;BME280;4950;46.042;14.472;2023-05-09T07:36:59;98423.59;;;13.50;76.36
9822;BME280;4950;46.042;14.472;2023-05-09T07:39:25;98414.94;;;13.49;75.89
9822;BME280;4950;46.042;14.472;2023-05-09T07:41:52;98406.59;;;13.39;75.78
9822;BME280;4950;46.042;14.472;2023-05-09T07:44:19;98413.97;;;13.50;76.05
9822;BME280;4950;46.042;14.472;2023-05-09T07:46:45;98410.34;;;13.51;76.20
9822;BME280;4950;46.042;14.472;2023-05-09T07:49:16;98404.78;;;13.54;75.71
9822;BME280;4950;46.042;14.472;2023-05-09T07:51:43;98403.72;;;13.49;76.35
9822;BME280;4950;46.042;14.472;2023-05-09T07:54:10;98398.88;;;13.46;76.27
9822;BME280;4950;46.042;14.472;2023-05-09T07:56:36;98395.53;;;13.52;77.36
9822;BME280;4950;46.042;14.472;2023-05-09T07:59:03;98402.25;;;13.61;77.26
9822;BME280;4950;46.042;14.472;2023-05-09T08:01:30;98406.41;;;13.70;77.03
9822;BME280;4950;46.042;14.472;2023-05-09T08:03:56;98406.41;;;13.70;77.48
9822;BME280;4950;46.042;14.472;2023-05-09T08:06:24;98403.06;;;13.76;77.18
9822;BME280;4950;46.042;14.472;2023-05-09T08:08:51;98412.16;;;13.80;76.62
9822;BME280;4950;46.042;14.472;2023-05-09T08:11:18;98404.03;;;13.90;76.22
9822;BME280;4950;46.042;14.472;2023-05-09T08:13:44;98409.72;;;13.94;76.05
9822;BME280;4950;46.042;14.472;2023-05-09T08:16:12;98404.59;;;14.00;76.37
9822;BME280;4950;46.042;14.472;2023-05-09T08:18:41;98403.75;;;14.00;75.92
9822;BME280;4950;46.042;14.472;2023-05-09T08:21:07;98404.75;;;13.99;75.67
9822;BME280;4950;46.042;14.472;2023-05-09T08:23:36;98404.81;;;14.06;75.20
9822;BME280;4950;46.042;14.472;2023-05-09T08:26:02;98401.25;;;13.92;75.82
9822;BME280;4950;46.042;14.472;2023-05-09T08:28:29;98402.88;;;13.93;76.33
9822;BME280;4950;46.042;14.472;2023-05-09T08:30:55;98405.00;;;14.04;75.77
9822;BME280;4950;46.042;14.472;2023-05-09T08:33:22;98400.28;;;13.93;76.42
9822;BME280;4950;46.042;14.472;2023-05-09T08:35:50;98392.97;;;13.88;77.03
9822;BME280;4950;46.042;14.472;2023-05-09T08:38:17;98390.81;;;13.92;76.87
9822;BME280;4950;46.042;14.472;2023-05-09T08:40:45;98400.28;;;13.93;76.98
9822;BME280;4950;46.042;14.472;2023-05-09T08:43:12;98398.13;;;13.96;76.85
9822;BME280;4950;46.042;14.472;2023-05-09T08:45:44;98401.06;;;13.93;77.13
9822;BME280;4950;46.042;14.472;2023-05-09T08:48:13;98401.00;;;13.87;77.32
9822;BME280;4950;46.042;14.472;2023-05-09T08:50:40;98396.31;;;13.97;76.98
9822;BME280;4950;46.042;14.472;2023-05-09T08:53:07;98397.56;;;14.01;77.08
9822;BME280;4950;46.042;14.472;2023-05-09T08:55:34;98402.78;;;14.01;77.51
9822;BME280;4950;46.042;14.472;2023-05-09T08:58:03;98405.72;;;14.13;78.01
9822;BME280;4950;46.042;14.472;2023-05-09T09:00:30;98403.78;;;14.21;76.81
9822;BME280;4950;46.042;14.472;2023-05-09T09:03:00;98406.81;;;14.40;75.36
9822;BME280;4950;46.042;14.472;2023-05-09T09:05:29;98400.72;;;14.54;75.85
9822;BME280;4950;46.042;14.472;2023-05-09T09:07:57;98394.84;;;14.67;74.29
9822;BME280;4950;46.042;14.472;2023-05-09T09:10:25;98401.88;;;14.67;73.65
9822;BME280;4950;46.042;14.472;2023-05-09T09:12:55;98409.78;;;14.73;74.75
9822;BME280;4950;46.042;14.472;2023-05-09T09:15:27;98406.09;;;14.68;74.28
9822;BME280;4950;46.042;14.472;2023-05-09T09:17:57;98395.50;;;14.76;73.91
9822;BME280;4950;46.042;14.472;2023-05-09T09:20:26;98390.88;;;14.99;74.59
9822;BME280;4950;46.042;14.472;2023-05-09T09:22:58;98387.59;;;15.19;73.58
9822;BME280;4950;46.042;14.472;2023-05-09T09:25:26;98384.09;;;15.33;71.95
9822;BME280;4950;46.042;14.472;2023-05-09T09:27:52;98380.09;;;15.44;71.53
9822;BME280;4950;46.042;14.472;2023-05-09T09:30:22;98371.28;;;15.52;70.72
9822;BME280;4950;46.042;14.472;2023-05-09T09:32:50;98377.19;;;15.60;68.63
9822;BME280;4950;46.042;14.472;2023-05-09T09:35:17;98380.78;;;15.59;68.48
9822;BME280;4950;46.042;14.472;2023-05-09T09:37:44;98380.78;;;15.53;67.97
9822;BME280;4950;46.042;14.472;2023-05-09T09:40:11;98371.56;;;15.64;68.36
9822;BME280;4950;46.042;14.472;2023-05-09T09:42:41;98360.91;;;15.72;68.64
9822;BME280;4950;46.042;14.472;2023-05-09T09:45:09;98364.03;;;15.89;68.61
9822;BME280;4950;46.042;14.472;2023-05-09T09:47:37;98366.50;;;16.04;68.08
9822;BME280;4950;46.042;14.472;2023-05-09T09:50:10;98375.00;;;16.12;65.77
9822;BME280;4950;46.042;14.472;2023-05-09T09:52:41;98366.75;;;16.22;66.60
9822;BME280;4950;46.042;14.472;2023-05-09T09:55:08;98362.53;;;16.28;64.33
9822;BME280;4950;46.042;14.472;2023-05-09T09:57:35;98360.75;;;16.35;62.04
9822;BME280;4950;46.042;14.472;2023-05-09T10:00:05;98363.75;;;16.32;61.46
9822;BME280;4950;46.042;14.472;2023-05-09T10:02:32;98355.06;;;16.18;63.36
9822;BME280;4950;46.042;14.472;2023-05-09T10:05:05;98362.16;;;16.31;62.16
9822;BME280;4950;46.042;14.472;2023-05-09T10:07:33;98364.97;;;16.36;60.16
9822;BME280;4950;46.042;14.472;2023-05-09T10:10:01;98356.72;;;16.46;60.01
9822;BME280;4950;46.042;14.472;2023-05-09T10:12:32;98354.31;;;16.57;60.14
9822;BME280;4950;46.042;14.472;2023-05-09T10:15:01;98352.28;;;16.53;60.78
9822;BME280;4950;46.042;14.472;2023-05-09T10:17:30;98359.72;;;16.36;60.16
9822;BME280;4950;46.042;14.472;2023-05-09T10:19:59;98359.53;;;16.31;60.72
9822;BME280;4950;46.042;14.472;2023-05-09T10:22:28;98366.59;;;16.37;59.72
9822;BME280;4950;46.042;14.472;2023-05-09T10:25:01;98361.13;;;16.32;59.80
9822;BME280;4950;46.042;14.472;2023-05-09T10:27:30;98348.44;;;16.42;60.23
9822;BME280;4950;46.042;14.472;2023-05-09T10:30:01;98355.09;;;16.45;58.43
9822;BME280;4950;46.042;14.472;2023-05-09T10:32:32;98350.47;;;16.53;59.45
9822;BME280;4950;46.042;14.472;2023-05-09T10:35:05;98365.22;;;16.68;55.93
9822;BME280;4950;46.042;14.472;2023-05-09T10:37:32;98339.38;;;16.65;56.80
9822;BME280;4950;46.042;14.472;2023-05-09T10:40:02;98337.97;;;16.75;57.14
9822;BME280;4950;46.042;14.472;2023-05-09T10:42:29;98335.97;;;16.71;57.70
9822;BME280;4950;46.042;14.472;2023-05-09T10:44:56;98336.38;;;16.68;57.11
9822;BME280;4950;46.042;14.472;2023-05-09T10:47:24;98327.53;;;16.82;58.40
9822;BME280;4950;46.042;14.472;2023-05-09T10:49:52;98325.50;;;16.97;56.42
9822;BME280;4950;46.042;14.472;2023-05-09T10:52:20;98314.56;;;17.01;56.36
9822;BME280;4950;46.042;14.472;2023-05-09T10:54:57;98318.78;;;17.08;55.04
9822;BME280;4950;46.042;14.472;2023-05-09T10:57:27;98313.16;;;17.11;55.84
9822;BME280;4950;46.042;14.472;2023-05-09T10:59:55;98306.47;;;17.15;54.93
9822;BME280;4950;46.042;14.472;2023-05-09T11:02:22;98305.25;;;17.25;55.24
9822;BME280;4950;46.042;14.472;2023-05-09T11:05:17;98309.84;;;17.36;53.24
9822;BME280;4950;46.042;14.472;2023-05-09T11:07:44;98300.75;;;17.39;53.09
9822;BME280;4950;46.042;14.472;2023-05-09T11:10:14;98305.97;;;17.45;53.38
9822;BME280;4950;46.042;14.472;2023-05-09T11:12:55;98302.13;;;17.54;54.35
9822;BME280;4950;46.042;14.472;2023-05-09T11:15:22;98316.47;;;17.52;54.06
9822;BME280;4950;46.042;14.472;2023-05-09T11:17:50;98301.72;;;17.51;54.32
9822;BME280;4950;46.042;14.472;2023-05-09T11:20:32;98296.22;;;17.59;53.10
9822;BME280;4950;46.042;14.472;2023-05-09T11:23:00;98293.19;;;17.55;52.45
9822;BME280;4950;46.042;14.472;2023-05-09T11:25:27;98277.69;;;17.54;51.83
9822;BME280;4950;46.042;14.472;2023-05-09T11:27:59;98291.81;;;17.53;51.46
9822;BME280;4950;46.042;14.472;2023-05-09T11:30:34;98291.75;;;17.66;52.77
9822;BME280;4950;46.042;14.472;2023-05-09T11:33:03;98280.84;;;17.69;50.41
9822;BME280;4950;46.042;14.472;2023-05-09T11:35:31;98272.28;;;17.81;48.79
9822;BME280;4950;46.042;14.472;2023-05-09T11:38:00;98266.00;;;17.88;48.59
9822;BME280;4950;46.042;14.472;2023-05-09T11:40:28;98274.00;;;18.00;48.79
9822;BME280;4950;46.042;14.472;2023-05-09T11:42:57;98256.97;;;18.09;50.25
9822;BME280;4950;46.042;14.472;2023-05-09T11:45:25;98256.38;;;18.07;46.86
9822;BME280;4950;46.042;14.472;2023-05-09T11:47:52;98257.03;;;18.03;45.80
9822;BME280;4950;46.042;14.472;2023-05-09T11:50:19;98253.50;;;18.15;47.21
9822;BME280;4950;46.042;14.472;2023-05-09T11:52:47;98238.63;;;18.28;44.45
9822;BME280;4950;46.042;14.472;2023-05-09T11:55:15;98245.94;;;18.26;44.13
9822;BME280;4950;46.042;14.472;2023-05-09T11:57:44;98227.19;;;18.22;40.90
9822;BME280;4950;46.042;14.472;2023-05-09T12:00:14;98237.81;;;18.34;42.39
9822;BME280;4950;46.042;14.472;2023-05-09T12:02:42;98233.03;;;18.49;43.71
9822;BME280;4950;46.042;14.472;2023-05-09T12:05:11;98234.53;;;18.57;44.37
9822;BME280;4950;46.042;14.472;2023-05-09T12:07:39;98236.47;;;18.68;45.30
9822;BME280;4950;46.042;14.472;2023-05-09T12:10:07;98232.13;;;18.81;42.71
9822;BME280;4950;46.042;14.472;2023-05-09T12:12:34;98228.63;;;18.87;42.63
9822;BME280;4950;46.042;14.472;2023-05-09T12:15:02;98227.75;;;18.93;42.76
9822;BME280;4950;46.042;14.472;2023-05-09T12:17:31;98226.06;;;18.80;43.22
9822;BME280;4950;46.042;14.472;2023-05-09T12:19:58;98218.75;;;18.82;44.92
9822;BME280;4950;46.042;14.472;2023-05-09T12:22:26;98227.56;;;18.69;43.70
9822;BME280;4950;46.042;14.472;2023-05-09T12:24:54;98232.53;;;18.59;45.39
9822;BME280;4950;46.042;14.472;2023-05-09T12:27:21;98220.16;;;18.60;44.73
9822;BME280;4950;46.042;14.472;2023-05-09T12:29:50;98224.34;;;18.67;44.54
9822;BME280;4950;46.042;14.472;2023-05-09T12:32:17;98216.22;;;18.69;43.21
9822;BME280;4950;46.042;14.472;2023-05-09T12:34:45;98211.47;;;18.59;43.69
9822;BME280;4950;46.042;14.472;2023-05-09T12:37:16;98213.50;;;18.57;44.82
9822;BME280;4950;46.042;14.472;2023-05-09T12:39:44;98210.34;;;18.48;45.22
9822;BME280;4950;46.042;14.472;2023-05-09T12:42:11;98197.22;;;18.48;43.50
9822;BME280;4950;46.042;14.472;2023-05-09T12:44:38;98182.03;;;18.50;44.60
9822;BME280;4950;46.042;14.472;2023-05-09T12:47:06;98186.41;;;18.57;45.43
9822;BME280;4950;46.042;14.472;2023-05-09T12:49:35;98186.53;;;18.43;46.58
9822;BME280;4950;46.042;14.472;2023-05-09T12:52:03;98189.44;;;18.35;45.64
9822;BME280;4950;46.042;14.472;2023-05-09T12:54:30;98189.03;;;18.38;44.71
9822;BME280;4950;46.042;14.472;2023-05-09T12:56:57;98194.41;;;18.43;45.87
9822;BME280;4950;46.042;14.472;2023-05-09T12:59:25;98179.69;;;18.42;46.50
9822;BME280;4950;46.042;14.472;2023-05-09T13:01:54;98186.59;;;18.37;46.40
9822;BME280;4950;46.042;14.472;2023-05-09T13:04:22;98176.25;;;18.42;45.67
9822;BME280;4950;46.042;14.472;2023-05-09T13:06:49;98178.13;;;18.34;45.17
9822;BME280;4950;46.042;14.472;2023-05-09T13:09:18;98169.31;;;18.47;45.58
9822;BME280;4950;46.042;14.472;2023-05-09T13:11:45;98179.53;;;18.37;45.25
9822;BME280;4950;46.042;14.472;2023-05-09T13:14:14;98183.50;;;18.21;45.81